Time;durP1;ratioP1;P1;durP2;ratioP2;P2;SDS_P1;SDS_P2;PMS_P1;PMS_P2;Temp;Humidity;BMP_temperature;BMP_pressure;BME280_temperature;BME280_humidity;BME280_pressure;Samples;Min_cycle;Max_cycle;Signal;HPM_P1;HPM_P2
2021/03/08 00:02:06;;;;;;;18.47;8.83;;;5.00;99.90;;;;;;4962557;28;20596;-74
2021/03/08 00:04:32;;;;;;;14.30;8.90;;;5.00;99.90;;;;;;4963938;28;20189;-75
2021/03/08 00:06:57;;;;;;;9.87;6.90;;;5.00;99.90;;;;;;4977435;28;20551;-76
2021/03/08 00:09:23;;;;;;;11.17;8.47;;;5.00;99.90;;;;;;4978447;28;20548;-76
2021/03/08 00:11:48;;;;;;;9.13;7.70;;;5.00;99.90;;;;;;4978246;28;20185;-76
2021/03/08 00:14:14;;;;;;;11.87;8.43;;;5.00;99.90;;;;;;4978591;28;20659;-76
2021/03/08 00:16:40;;;;;;;11.30;8.47;;;5.10;99.90;;;;;;4958574;28;20781;-75
2021/03/08 00:19:06;;;;;;;17.57;9.83;;;5.10;99.90;;;;;;4979266;28;20185;-75
2021/03/08 00:21:31;;;;;;;12.63;8.73;;;5.10;99.90;;;;;;4980568;28;20208;-76
2021/03/08 00:23:57;;;;;;;14.20;8.60;;;5.10;99.90;;;;;;4956081;29;20942;-76
2021/03/08 00:26:23;;;;;;;12.20;8.33;;;5.10;99.90;;;;;;4963064;29;20611;-75
2021/03/08 00:28:48;;;;;;;12.80;8.20;;;5.10;99.90;;;;;;4944054;29;20228;-75
2021/03/08 00:31:14;;;;;;;10.90;8.13;;;5.10;99.90;;;;;;4957208;28;20185;-76
2021/03/08 00:33:39;;;;;;;10.30;8.80;;;5.10;99.90;;;;;;4961987;28;20264;-75
2021/03/08 00:36:05;;;;;;;12.67;7.87;;;5.20;99.90;;;;;;4978747;28;20201;-76
2021/03/08 00:38:31;;;;;;;15.47;9.20;;;5.20;99.90;;;;;;4977284;28;20189;-76
2021/03/08 00:40:56;;;;;;;12.10;9.10;;;5.20;99.90;;;;;;4978448;28;20197;-76
2021/03/08 00:43:22;;;;;;;11.20;8.33;;;5.20;99.90;;;;;;4961726;28;20181;-76
2021/03/08 00:45:47;;;;;;;13.03;9.60;;;5.20;99.90;;;;;;4961622;28;20206;-75
2021/03/08 00:48:13;;;;;;;12.37;9.50;;;5.20;99.90;;;;;;4976662;28;20205;-75
2021/03/08 00:50:38;;;;;;;18.87;10.90;;;5.20;99.90;;;;;;4979015;28;20207;-76
2021/03/08 00:53:04;;;;;;;16.13;10.67;;;5.20;99.90;;;;;;4965207;28;20185;-76
2021/03/08 00:55:30;;;;;;;17.60;10.87;;;5.20;99.90;;;;;;4965273;28;20189;-76
2021/03/08 00:57:56;;;;;;;16.80;10.40;;;5.20;99.90;;;;;;4980725;28;20465;-75
2021/03/08 01:00:24;;;;;;;17.27;10.20;;;5.20;99.90;;;;;;4979634;28;20189;-75
2021/03/08 01:02:51;;;;;;;16.63;10.70;;;5.30;99.90;;;;;;4981753;28;20542;-76
2021/03/08 01:05:17;;;;;;;16.17;10.70;;;5.30;99.90;;;;;;4964681;28;20449;-76
2021/03/08 01:07:43;;;;;;;13.00;10.37;;;5.20;99.90;;;;;;4979533;28;20558;-75
2021/03/08 01:10:14;;;;;;;14.93;9.83;;;5.20;99.90;;;;;;4981815;28;20238;-76
2021/03/08 01:12:41;;;;;;;18.77;10.70;;;5.20;99.90;;;;;;4981437;28;20237;-76
2021/03/08 01:15:08;;;;;;;13.93;10.20;;;5.20;99.90;;;;;;4965776;28;20424;-76
2021/03/08 01:17:35;;;;;;;15.37;9.97;;;5.20;99.90;;;;;;4963067;28;20492;-76
2021/03/08 01:20:00;;;;;;;18.10;11.90;;;5.20;99.90;;;;;;4981110;28;20437;-76
2021/03/08 01:22:26;;;;;;;13.87;10.83;;;5.20;99.90;;;;;;4981524;28;20451;-75
2021/03/08 01:24:51;;;;;;;18.20;11.17;;;5.20;99.90;;;;;;4958695;28;20229;-74
2021/03/08 01:27:17;;;;;;;16.07;10.83;;;5.20;99.90;;;;;;4957187;28;20204;-74
2021/03/08 01:29:42;;;;;;;19.90;11.67;;;5.20;99.90;;;;;;4974805;28;20211;-74
2021/03/08 01:32:08;;;;;;;17.70;11.47;;;5.20;99.90;;;;;;4974409;28;20189;-75
2021/03/08 01:34:33;;;;;;;18.77;13.07;;;5.20;99.90;;;;;;4975386;28;20199;-74
2021/03/08 01:36:59;;;;;;;15.10;10.40;;;5.30;99.90;;;;;;4974135;28;20205;-74
2021/03/08 01:39:25;;;;;;;16.27;11.30;;;5.20;99.90;;;;;;4956894;28;20181;-75
2021/03/08 01:41:50;;;;;;;16.97;12.43;;;5.30;99.90;;;;;;4969466;28;22073;-74
2021/03/08 01:44:16;;;;;;;17.00;12.63;;;5.20;99.90;;;;;;4979282;28;20185;-75
2021/03/08 01:46:42;;;;;;;25.63;12.53;;;5.30;99.90;;;;;;4982396;28;20483;-76
2021/03/08 01:49:07;;;;;;;17.90;12.30;;;5.20;99.90;;;;;;4963742;28;20224;-75
2021/03/08 01:51:33;;;;;;;20.40;13.13;;;5.20;99.90;;;;;;4981352;28;20194;-76
2021/03/08 01:53:58;;;;;;;17.60;13.00;;;5.10;99.90;;;;;;4963384;28;20184;-75
2021/03/08 01:56:24;;;;;;;16.70;12.63;;;5.10;99.90;;;;;;4964785;28;20213;-76
2021/03/08 01:58:50;;;;;;;17.70;13.30;;;5.10;99.90;;;;;;4982232;28;20608;-77
2021/03/08 02:01:16;;;;;;;20.80;12.30;;;5.10;99.90;;;;;;4979297;28;20648;-77
2021/03/08 02:03:42;;;;;;;18.20;13.10;;;5.10;99.90;;;;;;4958488;28;20655;-76
2021/03/08 02:06:07;;;;;;;23.13;13.27;;;5.00;99.90;;;;;;4976965;28;20471;-76
2021/03/08 02:08:33;;;;;;;20.90;14.27;;;5.10;99.90;;;;;;4971879;28;20474;-75
2021/03/08 02:10:59;;;;;;;19.70;14.87;;;5.10;99.90;;;;;;4973327;28;20627;-75
2021/03/08 02:13:24;;;;;;;20.73;13.27;;;5.10;99.90;;;;;;4970521;28;20268;-74
2021/03/08 02:16:23;;;;;;;21.57;13.57;;;5.10;99.90;;;;;;4973057;28;20191;-74
2021/03/08 02:18:49;;;;;;;18.60;12.40;;;5.10;99.90;;;;;;4972747;28;20181;-75
2021/03/08 02:21:20;;;;;;;20.27;13.73;;;5.10;99.90;;;;;;4973506;28;20460;-74
2021/03/08 02:24:06;;;;;;;21.80;13.63;;;5.10;99.90;;;;;;4974087;28;20204;-76
2021/03/08 02:26:40;;;;;;;24.63;13.63;;;5.20;99.90;;;;;;4961350;28;20487;-77
2021/03/08 02:29:23;;;;;;;22.03;13.90;;;5.10;99.90;;;;;;4979062;28;20463;-76
2021/03/08 02:31:51;;;;;;;25.30;13.70;;;5.10;99.90;;;;;;4978254;28;20424;-77
2021/03/08 02:34:28;;;;;;;19.97;14.97;;;5.10;99.90;;;;;;4961241;28;20432;-77
2021/03/08 02:37:01;;;;;;;21.03;15.07;;;5.10;99.90;;;;;;4979111;28;20813;-76
2021/03/08 02:39:31;;;;;;;24.40;14.40;;;5.10;99.90;;;;;;4977534;28;20441;-77
2021/03/08 02:41:59;;;;;;;20.63;13.43;;;5.10;99.90;;;;;;4978615;28;20440;-76
2021/03/08 02:44:30;;;;;;;19.63;13.70;;;5.10;99.90;;;;;;4961491;28;20877;-77
2021/03/08 02:46:57;;;;;;;27.47;15.53;;;5.10;99.90;;;;;;4958409;28;20456;-77
2021/03/08 02:49:27;;;;;;;24.60;14.30;;;5.20;99.90;;;;;;4960761;28;20969;-77
2021/03/08 02:51:59;;;;;;;24.43;13.97;;;5.10;99.90;;;;;;4977706;28;20440;-76
2021/03/08 02:54:27;;;;;;;22.40;16.17;;;5.10;99.90;;;;;;4976334;28;20428;-77
2021/03/08 02:56:58;;;;;;;25.40;14.70;;;5.10;99.90;;;;;;4978438;28;20490;-76
2021/03/08 02:59:26;;;;;;;28.30;17.47;;;5.10;99.90;;;;;;4960766;28;20515;-77
2021/03/08 03:01:52;;;;;;;25.50;15.50;;;5.00;99.90;;;;;;4977423;28;20425;-77
2021/03/08 03:04:21;;;;;;;22.37;15.07;;;5.00;99.90;;;;;;4959906;28;20436;-77
2021/03/08 03:06:48;;;;;;;23.27;16.63;;;5.00;99.90;;;;;;4960874;28;20455;-77
2021/03/08 03:09:16;;;;;;;28.43;15.60;;;5.00;99.90;;;;;;4977563;28;20468;-77
2021/03/08 03:11:50;;;;;;;25.43;15.57;;;4.90;99.90;;;;;;4977558;28;20464;-76
2021/03/08 03:14:17;;;;;;;23.27;14.13;;;4.90;99.90;;;;;;4978243;28;20452;-76
2021/03/08 03:16:46;;;;;;;23.63;15.60;;;4.90;99.90;;;;;;4972951;28;20463;-76
2021/03/08 03:19:14;;;;;;;29.70;16.53;;;4.80;99.90;;;;;;4960266;28;20514;-77
2021/03/08 03:21:43;;;;;;;24.83;16.00;;;4.80;99.90;;;;;;4973479;28;20798;-74
2021/03/08 03:24:09;;;;;;;23.80;16.40;;;4.80;99.90;;;;;;4972826;28;20598;-75
2021/03/08 03:26:36;;;;;;;28.63;17.83;;;4.80;99.90;;;;;;4955005;28;20506;-75
2021/03/08 03:29:03;;;;;;;23.97;16.00;;;4.80;99.90;;;;;;4972265;28;20797;-75
2021/03/08 03:31:30;;;;;;;28.00;16.20;;;4.80;99.90;;;;;;4972369;28;20429;-75
2021/03/08 03:33:57;;;;;;;26.77;17.03;;;4.80;99.90;;;;;;4977460;28;20436;-76
2021/03/08 03:36:24;;;;;;;27.80;17.57;;;4.80;99.90;;;;;;4960897;28;20462;-75
2021/03/08 03:38:52;;;;;;;29.93;16.17;;;4.80;99.90;;;;;;4970419;28;20950;-74
2021/03/08 03:41:18;;;;;;;30.07;16.93;;;4.80;99.90;;;;;;4972377;28;20575;-74
2021/03/08 03:43:43;;;;;;;30.40;18.93;;;4.80;99.90;;;;;;4974927;28;20511;-76
2021/03/08 03:46:09;;;;;;;27.43;17.30;;;4.80;99.90;;;;;;4975291;28;20201;-75
2021/03/08 03:48:35;;;;;;;26.97;17.13;;;4.70;99.90;;;;;;4972786;28;20222;-76
2021/03/08 03:51:01;;;;;;;30.43;18.40;;;4.70;99.90;;;;;;4957426;28;20199;-76
2021/03/08 03:53:26;;;;;;;34.10;19.53;;;4.80;99.90;;;;;;4960461;28;20181;-76
2021/03/08 03:55:53;;;;;;;32.60;18.80;;;4.70;99.90;;;;;;4954859;28;20435;-77
2021/03/08 03:58:24;;;;;;;30.70;18.20;;;4.70;99.90;;;;;;4957714;29;20402;-76
2021/03/08 04:01:11;;;;;;;32.90;19.67;;;4.80;99.90;;;;;;4957256;28;20447;-74
2021/03/08 04:04:06;;;;;;;34.40;18.00;;;4.70;99.90;;;;;;4971750;28;20532;-74
2021/03/08 04:06:42;;;;;;;31.33;18.30;;;4.70;99.90;;;;;;4972441;28;21016;-76
2021/03/08 04:09:10;;;;;;;30.63;18.70;;;4.60;99.90;;;;;;4972547;28;20470;-75
2021/03/08 04:11:39;;;;;;;39.37;19.23;;;4.60;99.90;;;;;;4972347;28;20467;-75
2021/03/08 04:14:06;;;;;;;34.73;20.53;;;4.60;99.90;;;;;;4973178;28;20487;-77
2021/03/08 04:16:33;;;;;;;34.80;20.83;;;4.60;99.90;;;;;;4957150;28;20801;-77
2021/03/08 04:19:01;;;;;;;30.60;19.83;;;4.50;99.90;;;;;;4975891;28;20447;-76
2021/03/08 04:21:28;;;;;;;44.30;24.10;;;4.60;99.90;;;;;;4955726;28;20443;-76
2021/03/08 04:23:56;;;;;;;38.10;21.57;;;4.50;99.90;;;;;;4971346;28;20439;-75
2021/03/08 04:26:22;;;;;;;40.47;20.73;;;4.50;99.90;;;;;;4974030;28;20495;-75
2021/03/08 04:28:50;;;;;;;40.47;19.57;;;4.50;99.90;;;;;;4976188;28;20509;-75
2021/03/08 04:31:17;;;;;;;31.70;20.70;;;4.60;99.90;;;;;;4974742;28;20960;-74
2021/03/08 04:33:45;;;;;;;33.53;22.63;;;4.60;99.90;;;;;;4977219;28;20960;-77
2021/03/08 04:36:12;;;;;;;34.13;20.10;;;4.60;99.90;;;;;;4978164;28;20468;-75
2021/03/08 04:38:41;;;;;;;35.00;20.77;;;4.60;99.90;;;;;;4978841;28;20486;-76
2021/03/08 04:41:07;;;;;;;31.27;19.50;;;4.60;99.90;;;;;;4980302;28;20401;-76
2021/03/08 04:43:35;;;;;;;34.37;20.80;;;4.60;99.90;;;;;;4979411;28;20444;-74
2021/03/08 04:46:01;;;;;;;37.27;20.03;;;4.60;99.90;;;;;;4960197;28;20523;-76
2021/03/08 04:48:28;;;;;;;40.03;23.50;;;4.70;99.90;;;;;;4962680;28;20877;-77
2021/03/08 04:50:54;;;;;;;34.87;21.10;;;4.70;99.90;;;;;;4979188;28;20460;-76
2021/03/08 04:53:21;;;;;;;34.30;20.50;;;4.70;99.90;;;;;;4976601;28;20433;-74
2021/03/08 04:55:48;;;;;;;47.10;21.10;;;4.60;99.90;;;;;;4975372;28;20880;-74
2021/03/08 04:58:14;;;;;;;41.97;22.67;;;4.60;99.90;;;;;;4975701;28;20443;-74
2021/03/08 05:00:39;;;;;;;35.30;20.53;;;4.60;99.90;;;;;;4974984;28;20443;-75
2021/03/08 05:03:05;;;;;;;35.37;19.90;;;4.60;99.90;;;;;;4979196;28;20173;-75
2021/03/08 05:05:32;;;;;;;36.30;21.17;;;4.60;99.90;;;;;;4961608;28;20793;-77
2021/03/08 05:08:16;;;;;;;46.33;22.87;;;4.60;99.90;;;;;;4978424;28;20204;-75
2021/03/08 05:10:41;;;;;;;34.23;17.93;;;4.60;99.90;;;;;;4959333;29;20526;-75
2021/03/08 05:13:09;;;;;;;36.47;21.57;;;4.60;99.90;;;;;;4970246;28;21242;-76
2021/03/08 05:15:38;;;;;;;40.67;20.03;;;4.60;99.90;;;;;;4978753;28;20176;-76
2021/03/08 05:18:05;;;;;;;43.37;21.50;;;4.50;99.90;;;;;;4979122;28;20440;-76
2021/03/08 05:20:32;;;;;;;37.90;21.20;;;4.60;99.90;;;;;;4962074;28;20440;-76
2021/03/08 05:23:01;;;;;;;38.10;21.73;;;4.60;99.90;;;;;;4976308;28;20441;-74
2021/03/08 05:25:28;;;;;;;42.20;23.87;;;4.50;99.90;;;;;;4970859;28;20471;-74
2021/03/08 05:27:54;;;;;;;32.90;20.30;;;4.50;99.90;;;;;;4973645;28;20949;-75
2021/03/08 05:30:22;;;;;;;40.60;21.63;;;4.50;99.90;;;;;;4972650;28;20440;-75
2021/03/08 05:33:17;;;;;;;42.67;21.80;;;4.50;99.90;;;;;;4975241;28;20466;-75
2021/03/08 05:35:44;;;;;;;32.67;20.20;;;4.50;99.90;;;;;;4957126;28;20440;-75
2021/03/08 05:38:11;;;;;;;39.60;21.60;;;4.50;99.90;;;;;;4972772;28;20432;-75
2021/03/08 05:40:50;;;;;;;37.97;20.50;;;4.50;99.90;;;;;;4962045;28;20432;-74
2021/03/08 05:43:17;;;;;;;31.67;19.83;;;4.60;99.90;;;;;;4975697;28;20410;-77
2021/03/08 05:46:08;;;;;;;38.83;22.10;;;4.50;99.90;;;;;;4978423;28;20442;-76
2021/03/08 05:48:55;;;;;;;33.83;20.83;;;4.60;99.90;;;;;;4960454;28;20460;-76
2021/03/08 05:51:50;;;;;;;32.37;19.20;;;4.50;99.90;;;;;;4977414;28;20456;-76
2021/03/08 05:54:47;;;;;;;40.10;21.73;;;4.50;99.90;;;;;;4959017;28;20500;-74
2021/03/08 05:57:31;;;;;;;32.73;19.50;;;4.50;99.90;;;;;;4973960;28;20819;-75
2021/03/08 06:00:11;;;;;;;35.10;20.70;;;4.50;99.90;;;;;;4964145;28;20428;-74
2021/03/08 06:02:40;;;;;;;44.70;22.00;;;4.40;99.90;;;;;;4973582;28;20456;-74
2021/03/08 06:05:30;;;;;;;37.87;19.57;;;4.50;99.90;;;;;;4973541;28;20438;-74
2021/03/08 06:08:16;;;;;;;37.30;19.80;;;4.40;99.90;;;;;;4973159;28;20463;-75
2021/03/08 06:11:09;;;;;;;40.20;19.17;;;4.50;99.90;;;;;;4932859;28;20929;-74
2021/03/08 06:13:45;;;;;;;30.97;20.80;;;4.60;99.90;;;;;;4958573;28;20429;-77
2021/03/08 06:16:17;;;;;;;39.37;21.00;;;4.50;99.90;;;;;;4975029;28;20463;-77
2021/03/08 06:18:47;;;;;;;47.07;23.33;;;4.60;99.90;;;;;;4977602;28;20459;-76
2021/03/08 06:21:14;;;;;;;31.73;19.37;;;4.60;99.90;;;;;;4977407;28;20435;-76
2021/03/08 06:23:42;;;;;;;38.30;21.10;;;4.70;99.90;;;;;;4977139;28;20441;-76
2021/03/08 06:26:10;;;;;;;37.73;20.77;;;4.70;99.90;;;;;;4960138;28;20540;-76
2021/03/08 06:28:36;;;;;;;33.97;21.03;;;4.70;99.90;;;;;;4957646;28;20469;-76
2021/03/08 06:31:01;;;;;;;43.90;21.60;;;4.70;99.90;;;;;;4969668;28;20466;-76
2021/03/08 06:33:27;;;;;;;33.77;20.43;;;4.70;99.90;;;;;;4977528;28;20440;-76
2021/03/08 06:35:54;;;;;;;38.40;22.13;;;4.80;99.90;;;;;;4977605;28;20293;-77
2021/03/08 06:38:20;;;;;;;31.90;19.90;;;4.80;99.90;;;;;;4977840;28;20185;-77
2021/03/08 06:40:46;;;;;;;36.87;20.00;;;4.80;99.90;;;;;;4977630;28;20472;-77
2021/03/08 06:43:12;;;;;;;40.20;22.30;;;4.80;99.90;;;;;;4978200;28;20436;-76
2021/03/08 06:45:37;;;;;;;31.03;19.20;;;4.90;99.90;;;;;;4960533;28;20248;-77
2021/03/08 06:48:03;;;;;;;34.80;20.10;;;4.90;99.90;;;;;;4977245;28;20614;-76
2021/03/08 06:50:29;;;;;;;37.97;21.37;;;4.90;99.90;;;;;;4977437;28;20275;-77
2021/03/08 06:52:54;;;;;;;35.30;21.03;;;5.00;99.90;;;;;;4960954;28;20436;-76
2021/03/08 06:55:21;;;;;;;34.27;20.80;;;5.10;99.90;;;;;;4978356;28;20173;-75
2021/03/08 06:57:47;;;;;;;35.27;21.13;;;5.10;99.90;;;;;;4975069;28;20209;-74
2021/03/08 07:00:13;;;;;;;37.57;23.80;;;5.10;99.90;;;;;;4972269;28;20496;-75
2021/03/08 07:02:43;;;;;;;32.47;21.80;;;5.20;99.90;;;;;;4972285;28;20267;-76
2021/03/08 07:05:10;;;;;;;38.03;23.30;;;5.20;99.90;;;;;;4970336;28;20444;-75
2021/03/08 07:07:58;;;;;;;37.00;24.00;;;5.30;99.90;;;;;;4970126;28;20499;-75
2021/03/08 07:10:38;;;;;;;33.60;20.50;;;5.30;99.90;;;;;;4968588;28;20428;-74
2021/03/08 07:13:07;;;;;;;33.13;20.73;;;5.40;99.90;;;;;;4973091;28;20475;-74
2021/03/08 07:15:51;;;;;;;33.40;21.20;;;5.50;99.90;;;;;;4955793;28;20491;-74
2021/03/08 07:18:20;;;;;;;45.80;23.10;;;5.50;99.90;;;;;;4970489;28;20476;-75
2021/03/08 07:20:46;;;;;;;38.83;21.70;;;5.60;99.90;;;;;;4972769;28;20448;-75
2021/03/08 07:23:24;;;;;;;34.70;21.50;;;5.60;99.90;;;;;;4973308;28;20437;-76
2021/03/08 07:26:07;;;;;;;39.90;22.57;;;5.60;99.90;;;;;;4957767;28;20200;-77
2021/03/08 07:28:33;;;;;;;38.53;22.70;;;5.70;99.90;;;;;;4973204;28;21025;-75
2021/03/08 07:30:58;;;;;;;50.87;21.90;;;5.70;99.90;;;;;;4972411;28;20445;-75
2021/03/08 07:33:24;;;;;;;37.13;22.43;;;5.70;99.90;;;;;;4973046;28;20670;-75
2021/03/08 07:35:52;;;;;;;40.90;23.10;;;5.80;99.90;;;;;;4971988;28;20200;-77
2021/03/08 07:38:27;;;;;;;37.03;21.77;;;5.90;99.90;;;;;;4968372;28;20510;-75
2021/03/08 07:41:11;;;;;;;41.30;23.10;;;5.90;99.90;;;;;;4970481;28;20983;-77
2021/03/08 07:43:38;;;;;;;35.97;21.97;;;6.00;99.90;;;;;;4972808;28;20524;-76
2021/03/08 07:46:04;;;;;;;40.03;26.40;;;6.00;99.90;;;;;;4970969;28;20464;-75
2021/03/08 07:48:30;;;;;;;43.27;25.10;;;6.10;99.90;;;;;;4972112;28;20460;-75
2021/03/08 07:50:56;;;;;;;45.27;24.30;;;6.10;99.90;;;;;;4972033;28;20227;-75
2021/03/08 07:53:24;;;;;;;41.00;25.83;;;6.20;99.90;;;;;;4972468;28;20304;-76
2021/03/08 07:55:52;;;;;;;36.10;24.17;;;6.20;99.90;;;;;;4972453;28;20169;-76
2021/03/08 07:58:18;;;;;;;40.00;21.90;;;6.30;99.90;;;;;;4972023;28;20443;-76
2021/03/08 08:00:45;;;;;;;42.70;25.23;;;6.40;99.90;;;;;;4970645;28;20977;-76
2021/03/08 08:03:11;;;;;;;39.50;23.30;;;6.40;99.90;;;;;;4973232;28;20446;-77
2021/03/08 08:05:36;;;;;;;42.00;26.00;;;6.50;99.90;;;;;;4978006;28;20471;-77
2021/03/08 08:08:04;;;;;;;37.27;22.27;;;6.60;99.90;;;;;;4976840;28;20253;-77
2021/03/08 08:10:30;;;;;;;45.63;25.13;;;6.60;99.90;;;;;;4959494;28;20173;-77
2021/03/08 08:13:02;;;;;;;45.03;25.73;;;6.70;99.90;;;;;;4958174;28;20428;-77
2021/03/08 08:15:28;;;;;;;40.03;25.50;;;6.60;99.90;;;;;;4973891;28;20846;-77
2021/03/08 08:17:58;;;;;;;43.93;26.50;;;6.80;99.90;;;;;;4976241;28;21000;-76
2021/03/08 08:20:23;;;;;;;43.63;26.60;;;6.70;99.90;;;;;;4976874;28;20516;-77
2021/03/08 08:23:00;;;;;;;51.60;29.43;;;6.50;99.90;;;;;;4975488;28;20475;-77
2021/03/08 08:25:30;;;;;;;45.57;25.83;;;6.70;99.90;;;;;;4977015;28;20186;-77
2021/03/08 08:27:56;;;;;;;50.63;27.50;;;6.80;99.90;;;;;;4959741;28;20475;-76
2021/03/08 08:30:24;;;;;;;46.13;26.87;;;6.90;99.90;;;;;;4976764;28;20461;-76
2021/03/08 08:32:56;;;;;;;51.83;27.77;;;6.90;99.90;;;;;;4960725;28;20850;-77
2021/03/08 08:35:25;;;;;;;49.37;27.13;;;7.00;99.90;;;;;;4976663;28;20433;-76
2021/03/08 08:38:10;;;;;;;49.17;28.37;;;7.00;99.90;;;;;;4971913;28;20470;-76
2021/03/08 08:40:38;;;;;;;51.03;27.23;;;7.00;99.90;;;;;;4960081;28;20440;-76
2021/03/08 08:43:29;;;;;;;50.97;29.10;;;7.10;99.90;;;;;;4968556;28;20433;-76
2021/03/08 08:45:56;;;;;;;47.70;26.90;;;7.10;99.90;;;;;;4969444;28;20448;-76
2021/03/08 08:48:22;;;;;;;46.67;27.40;;;6.90;99.90;;;;;;4972073;28;20965;-76
2021/03/08 08:50:55;;;;;;;44.43;27.67;;;6.90;99.90;;;;;;4970133;28;20481;-76
2021/03/08 08:53:36;;;;;;;47.93;29.27;;;7.00;99.90;;;;;;4971056;28;20428;-76
2021/03/08 08:56:04;;;;;;;50.73;26.40;;;7.00;99.90;;;;;;4970785;28;20441;-78
2021/03/08 08:58:31;;;;;;;58.63;27.53;;;7.00;99.90;;;;;;4975132;28;20768;-77
2021/03/08 09:01:09;;;;;;;44.40;25.50;;;6.90;99.90;;;;;;4956744;28;20432;-77
2021/03/08 09:03:59;;;;;;;48.97;30.00;;;7.00;99.90;;;;;;4975563;28;20454;-77
2021/03/08 09:06:47;;;;;;;45.37;27.50;;;7.00;99.90;;;;;;4975163;28;20504;-78
2021/03/08 09:09:32;;;;;;;51.00;27.37;;;7.10;99.90;;;;;;4955514;28;20458;-75
2021/03/08 09:12:09;;;;;;;47.00;29.60;;;7.20;99.90;;;;;;4942184;28;20430;-79
2021/03/08 09:14:37;;;;;;;52.27;29.43;;;7.20;99.90;;;;;;4973923;28;20467;-79
2021/03/08 09:17:09;;;;;;;50.33;29.57;;;7.20;99.90;;;;;;4960367;28;20456;-78
2021/03/08 09:19:35;;;;;;;48.10;28.87;;;7.20;99.90;;;;;;4957701;28;20487;-78
2021/03/08 09:22:30;;;;;;;44.37;27.60;;;7.20;99.90;;;;;;4975787;28;20948;-78
2021/03/08 09:24:59;;;;;;;55.53;29.00;;;7.30;99.90;;;;;;4962283;28;20456;-78
2021/03/08 09:27:29;;;;;;;45.73;28.10;;;7.20;99.90;;;;;;4975254;28;20514;-78
2021/03/08 09:30:08;;;;;;;51.63;27.60;;;7.20;99.90;;;;;;4958665;28;20425;-79
2021/03/08 09:32:34;;;;;;;48.23;27.03;;;7.20;99.90;;;;;;4972731;28;20432;-79
2021/03/08 09:35:05;;;;;;;55.43;30.77;;;7.20;99.90;;;;;;4978398;28;20773;-78
2021/03/08 09:37:31;;;;;;;43.63;25.67;;;7.10;99.90;;;;;;4979558;28;20922;-78
2021/03/08 09:39:58;;;;;;;47.50;27.47;;;7.10;99.90;;;;;;4957958;28;20421;-77
2021/03/08 09:42:32;;;;;;;44.17;27.77;;;7.20;99.90;;;;;;4977007;28;20224;-77
2021/03/08 09:44:57;;;;;;;46.37;28.73;;;7.10;99.90;;;;;;4976986;28;20956;-77
2021/03/08 09:47:40;;;;;;;46.37;27.97;;;7.10;99.90;;;;;;4959543;28;20524;-76
2021/03/08 09:50:06;;;;;;;46.00;28.60;;;7.10;99.90;;;;;;4959534;28;20174;-76
2021/03/08 09:52:42;;;;;;;51.63;28.73;;;7.00;99.90;;;;;;4959558;28;21016;-76
2021/03/08 09:55:29;;;;;;;44.00;29.23;;;7.00;99.90;;;;;;4960392;28;20796;-78
2021/03/08 09:57:55;;;;;;;56.43;29.47;;;7.00;99.90;;;;;;4971894;28;20453;-76
2021/03/08 10:00:24;;;;;;;46.17;27.93;;;7.10;99.90;;;;;;4961801;28;20456;-77
2021/03/08 10:03:03;;;;;;;56.30;31.10;;;7.10;99.90;;;;;;4976168;28;20420;-78
2021/03/08 10:05:46;;;;;;;50.70;27.50;;;7.10;99.90;;;;;;4978356;28;20491;-78
2021/03/08 10:08:16;;;;;;;47.30;29.63;;;7.10;99.90;;;;;;4976246;28;20483;-77
2021/03/08 10:10:52;;;;;;;55.20;32.70;;;7.00;99.90;;;;;;4974334;28;20429;-77
2021/03/08 10:13:20;;;;;;;49.53;29.43;;;7.00;99.90;;;;;;4975510;28;20409;-76
2021/03/08 10:15:47;;;;;;;49.33;32.03;;;7.00;99.90;;;;;;4974007;28;20417;-76
2021/03/08 10:18:14;;;;;;;53.03;31.70;;;6.90;99.90;;;;;;4974139;28;20438;-76
2021/03/08 10:20:49;;;;;;;54.90;30.27;;;7.00;99.90;;;;;;4973879;28;20508;-77
2021/03/08 10:23:20;;;;;;;54.20;31.97;;;7.00;99.90;;;;;;4974149;28;20894;-76
2021/03/08 10:25:46;;;;;;;52.00;31.10;;;7.00;99.90;;;;;;4977423;28;20437;-78
2021/03/08 10:28:12;;;;;;;51.57;28.47;;;7.10;99.90;;;;;;4977475;28;20464;-77
2021/03/08 10:30:38;;;;;;;50.70;31.40;;;7.20;99.90;;;;;;4973081;28;20964;-77
2021/03/08 10:33:08;;;;;;;56.07;28.67;;;7.30;99.90;;;;;;4974271;28;20171;-77
2021/03/08 10:35:42;;;;;;;51.23;31.67;;;7.30;99.90;;;;;;4972998;28;20425;-76
2021/03/08 10:38:08;;;;;;;60.70;33.87;;;7.30;99.90;;;;;;4956613;28;20444;-77
2021/03/08 10:40:34;;;;;;;48.97;29.87;;;7.30;99.90;;;;;;4956289;28;20425;-77
2021/03/08 10:43:00;;;;;;;58.80;32.40;;;7.20;99.90;;;;;;4973795;28;20555;-77
2021/03/08 10:45:27;;;;;;;49.40;31.57;;;7.20;99.90;;;;;;4973754;28;20901;-77
2021/03/08 10:48:11;;;;;;;56.63;34.33;;;7.30;99.90;;;;;;4972213;28;20856;-77
2021/03/08 10:50:39;;;;;;;56.03;32.47;;;7.40;99.90;;;;;;4973633;28;20432;-77
2021/03/08 10:53:05;;;;;;;51.73;31.23;;;7.50;99.90;;;;;;4972739;28;20421;-77
2021/03/08 10:55:31;;;;;;;63.50;37.63;;;7.50;99.90;;;;;;4975515;28;20517;-77
2021/03/08 10:57:58;;;;;;;58.27;33.90;;;7.50;99.90;;;;;;4969764;28;20529;-77
2021/03/08 11:00:24;;;;;;;56.73;32.80;;;7.60;99.90;;;;;;4958916;28;20644;-77
2021/03/08 11:02:49;;;;;;;57.50;34.03;;;7.60;99.90;;;;;;4974996;28;20492;-79
2021/03/08 11:05:15;;;;;;;60.37;34.10;;;7.60;99.90;;;;;;4975806;28;20195;-79
2021/03/08 11:07:41;;;;;;;57.90;34.17;;;7.60;99.90;;;;;;4959926;28;20253;-79
2021/03/08 11:10:09;;;;;;;57.53;32.30;;;7.70;99.90;;;;;;4976587;28;20427;-78
2021/03/08 11:12:35;;;;;;;60.07;32.33;;;7.70;99.90;;;;;;4974812;28;20177;-78
2021/03/08 11:15:01;;;;;;;60.73;34.03;;;7.80;99.90;;;;;;4975028;28;20421;-77
2021/03/08 11:17:40;;;;;;;61.50;36.83;;;7.90;99.90;;;;;;4976081;28;20202;-77
2021/03/08 11:20:09;;;;;;;51.73;34.70;;;8.10;99.90;;;;;;4955108;28;20417;-77
2021/03/08 11:23:00;;;;;;;65.40;38.60;;;8.10;99.90;;;;;;4959297;28;20452;-78
2021/03/08 11:25:33;;;;;;;56.03;34.70;;;8.30;99.90;;;;;;4973899;28;20505;-77
2021/03/08 11:28:00;;;;;;;62.07;35.87;;;8.40;99.90;;;;;;4939617;29;20504;-77
2021/03/08 11:30:27;;;;;;;58.87;36.60;;;8.40;99.90;;;;;;4968290;28;20441;-77
2021/03/08 11:32:57;;;;;;;65.63;34.60;;;8.50;99.90;;;;;;4974979;28;20484;-77
2021/03/08 11:35:32;;;;;;;51.63;33.53;;;8.60;99.90;;;;;;4973461;28;20483;-77
2021/03/08 11:38:09;;;;;;;60.00;35.17;;;8.70;99.90;;;;;;4975001;28;20444;-78
2021/03/08 11:40:41;;;;;;;50.67;31.03;;;8.80;99.90;;;;;;4975253;28;20444;-78
2021/03/08 11:43:07;;;;;;;50.50;30.47;;;8.90;99.90;;;;;;4975260;28;20437;-78
2021/03/08 11:45:33;;;;;;;45.60;30.20;;;8.90;99.90;;;;;;4956813;28;20433;-78
2021/03/08 11:48:01;;;;;;;52.53;31.67;;;9.00;99.90;;;;;;4957722;28;20605;-79
2021/03/08 11:50:30;;;;;;;50.43;30.27;;;9.10;99.90;;;;;;4956936;28;20452;-79
2021/03/08 11:52:56;;;;;;;44.10;28.10;;;9.20;99.90;;;;;;4969517;28;20436;-79
2021/03/08 11:55:21;;;;;;;49.60;30.07;;;9.20;99.90;;;;;;4973692;28;20930;-78
2021/03/08 11:57:49;;;;;;;50.90;28.70;;;9.20;99.90;;;;;;4958144;28;20205;-79
2021/03/08 12:00:18;;;;;;;51.83;31.13;;;9.20;99.90;;;;;;4958201;28;20181;-79
2021/03/08 12:02:44;;;;;;;48.60;30.50;;;9.20;99.90;;;;;;4973802;28;20441;-78
2021/03/08 12:05:10;;;;;;;52.03;30.20;;;9.20;99.90;;;;;;4973007;28;20432;-77
2021/03/08 12:07:37;;;;;;;58.27;32.83;;;9.20;99.90;;;;;;4958655;28;20198;-78
2021/03/08 12:10:08;;;;;;;54.17;30.73;;;9.30;99.90;;;;;;4958729;28;20439;-79
2021/03/08 12:12:34;;;;;;;54.80;32.70;;;9.20;99.90;;;;;;4976306;28;20481;-79
2021/03/08 12:15:00;;;;;;;50.70;31.67;;;9.30;99.90;;;;;;4957008;28;20553;-78
2021/03/08 12:17:26;;;;;;;50.30;31.00;;;9.30;99.90;;;;;;4957512;28;20461;-80
2021/03/08 12:19:52;;;;;;;46.10;28.77;;;9.30;99.90;;;;;;4973284;28;20440;-79
2021/03/08 12:22:18;;;;;;;50.03;32.57;;;9.30;99.90;;;;;;4957973;28;20491;-79
2021/03/08 12:24:45;;;;;;;57.23;34.43;;;9.40;99.90;;;;;;4973864;28;20533;-78
2021/03/08 12:27:10;;;;;;;53.47;32.33;;;9.50;99.90;;;;;;4973804;28;21059;-78
2021/03/08 12:29:36;;;;;;;54.70;33.27;;;9.60;99.90;;;;;;4974398;28;20465;-78
2021/03/08 12:32:04;;;;;;;48.20;30.67;;;9.70;99.90;;;;;;4958245;28;20185;-77
2021/03/08 12:34:30;;;;;;;51.93;32.07;;;9.80;99.90;;;;;;4973033;28;20554;-78
2021/03/08 12:36:56;;;;;;;56.73;34.47;;;9.80;99.90;;;;;;4974521;28;20461;-78
2021/03/08 12:39:22;;;;;;;49.70;31.70;;;9.90;99.90;;;;;;4972733;28;20185;-77
2021/03/08 12:41:48;;;;;;;62.30;34.87;;;10.00;99.90;;;;;;4973172;28;20449;-78
2021/03/08 12:44:13;;;;;;;54.87;32.77;;;10.30;99.90;;;;;;4956853;28;20315;-78
2021/03/08 12:46:39;;;;;;;50.50;34.40;;;10.20;99.90;;;;;;4974608;28;20464;-79
2021/03/08 12:49:05;;;;;;;54.10;34.03;;;9.70;99.90;;;;;;4977369;28;20212;-78
2021/03/08 12:51:30;;;;;;;49.43;32.83;;;9.60;99.90;;;;;;4976179;28;20190;-77